createdAt,value
2023-01-08T00:01:59.978Z,20.60
2023-01-08T00:05:41.815Z,23.83
2023-01-08T00:09:23.583Z,21.30
2023-01-08T00:13:05.842Z,20.33
2023-01-08T00:16:47.605Z,21.45
2023-01-08T00:20:29.693Z,23.35
2023-01-08T00:24:11.375Z,20.88
2023-01-08T00:27:53.108Z,23.83
2023-01-08T00:31:34.945Z,22.27
2023-01-08T00:35:16.798Z,18.30
2023-01-08T00:38:59.034Z,23.15
2023-01-08T00:42:40.765Z,14.32
2023-01-08T00:46:22.588Z,19.52
2023-01-08T00:50:04.961Z,21.20
2023-01-08T00:53:46.624Z,22.33
2023-01-08T00:57:33.932Z,22.33
2023-01-08T01:01:15.914Z,20.73
2023-01-08T01:04:57.645Z,19.38
2023-01-08T01:08:39.511Z,21.00
2023-01-08T01:12:21.190Z,19.10
2023-01-08T01:16:03.103Z,16.65
2023-01-08T01:19:44.916Z,26.05
2023-01-08T01:23:26.648Z,15.60
2023-01-08T01:27:10.028Z,17.10
2023-01-08T01:30:56.369Z,23.67
2023-01-08T01:34:38.087Z,11.40
2023-01-08T01:38:20.169Z,8.48
2023-01-08T01:42:01.838Z,10.20
2023-01-08T01:45:43.652Z,5.63
2023-01-08T01:49:25.442Z,5.85
2023-01-08T01:53:15.593Z,7.25
2023-01-08T01:56:57.272Z,5.55
2023-01-08T02:00:38.964Z,6.78
2023-01-08T02:04:20.709Z,3.92
2023-01-08T02:08:10.122Z,7.20
2023-01-08T02:12:20.947Z,7.95
2023-01-08T02:16:08.754Z,4.15
2023-01-08T02:19:53.063Z,4.70
2023-01-08T02:24:00.904Z,4.72
2023-01-08T02:27:44.239Z,6.65
2023-01-08T02:31:26.834Z,3.83
2023-01-08T02:35:09.165Z,5.30
2023-01-08T02:39:01.696Z,7.90
2023-01-08T02:42:55.185Z,3.67
2023-01-08T02:46:36.903Z,6.55
2023-01-08T02:50:45.660Z,5.43
2023-01-08T02:54:29.282Z,6.22
2023-01-08T02:58:11.506Z,3.95
2023-01-08T03:01:54.383Z,4.32
2023-01-08T03:05:36.252Z,5.80
2023-01-08T03:09:17.944Z,4.05
2023-01-08T03:13:04.956Z,3.03
2023-01-08T03:17:01.151Z,3.05
2023-01-08T03:20:42.913Z,2.95
2023-01-08T03:24:26.796Z,4.45
2023-01-08T03:28:21.170Z,4.53
2023-01-08T03:32:05.079Z,1.75
2023-01-08T03:35:48.572Z,3.65
2023-01-08T03:40:00.741Z,3.55
2023-01-08T03:43:42.446Z,2.85
2023-01-08T03:47:24.255Z,4.40
2023-01-08T03:51:10.591Z,3.35
2023-01-08T03:54:52.371Z,4.35
2023-01-08T03:58:34.068Z,5.25
2023-01-08T04:02:16.140Z,9.57
2023-01-08T04:06:00.350Z,5.72
2023-01-08T04:09:42.026Z,7.15
2023-01-08T04:13:23.687Z,5.88
2023-01-08T04:17:05.353Z,3.92
2023-01-08T04:20:50.052Z,5.18
2023-01-08T04:24:31.735Z,3.72
2023-01-08T04:28:13.413Z,3.55
2023-01-08T04:31:55.136Z,5.28
2023-01-08T04:35:36.918Z,6.65
2023-01-08T04:39:18.606Z,13.77
2023-01-08T04:43:00.370Z,6.28
2023-01-08T04:46:42.135Z,10.13
2023-01-08T04:50:23.845Z,5.38
2023-01-08T04:54:05.638Z,7.15
2023-01-08T04:57:47.917Z,6.25
2023-01-08T05:01:29.864Z,6.18
2023-01-08T05:05:11.733Z,5.63
2023-01-08T05:08:53.512Z,9.27
2023-01-08T05:12:35.240Z,6.50
2023-01-08T05:16:17.105Z,5.50
2023-01-08T05:19:58.906Z,6.68
2023-01-08T05:23:40.591Z,7.53
2023-01-08T05:27:22.290Z,6.43
2023-01-08T05:31:04.077Z,10.93
2023-01-08T05:34:45.914Z,8.65
2023-01-08T05:38:27.662Z,6.85
2023-01-08T05:42:09.358Z,9.95
2023-01-08T05:45:51.091Z,14.23
2023-01-08T05:49:32.846Z,8.70
2023-01-08T05:53:14.507Z,7.97
2023-01-08T05:56:56.220Z,9.77
2023-01-08T06:00:38.014Z,7.20
2023-01-08T06:04:19.994Z,7.47
2023-01-08T06:08:01.765Z,7.78
2023-01-08T06:11:43.449Z,15.32
2023-01-08T06:15:25.127Z,11.75
2023-01-08T06:19:06.812Z,16.75
2023-01-08T06:22:48.504Z,15.45
2023-01-08T06:26:30.197Z,9.30
2023-01-08T06:30:12.808Z,10.15
2023-01-08T06:33:54.546Z,9.75
2023-01-08T06:37:36.239Z,9.93
2023-01-08T06:41:17.908Z,11.82
2023-01-08T06:44:59.574Z,9.75
2023-01-08T06:48:41.305Z,7.85
2023-01-08T06:52:22.995Z,11.82
2023-01-08T06:56:05.033Z,13.88
2023-01-08T06:59:46.734Z,11.93
2023-01-08T07:03:28.577Z,9.15
2023-01-08T07:07:14.227Z,7.70
2023-01-08T07:10:55.940Z,10.82
2023-01-08T07:14:37.626Z,11.07
2023-01-08T07:18:19.286Z,8.52
2023-01-08T07:22:01.054Z,9.45
2023-01-08T07:25:42.752Z,11.38
2023-01-08T07:29:24.517Z,13.57
2023-01-08T07:33:06.219Z,10.73
2023-01-08T07:36:47.987Z,9.13
2023-01-08T07:40:29.796Z,10.27
2023-01-08T07:44:11.987Z,10.13
2023-01-08T07:47:53.675Z,12.90
2023-01-08T07:51:35.384Z,9.50
2023-01-08T07:55:17.050Z,9.60
2023-01-08T07:58:58.843Z,13.25
2023-01-08T08:02:40.793Z,12.18
2023-01-08T08:06:22.647Z,14.50
2023-01-08T08:10:05.321Z,9.77
2023-01-08T08:13:47.495Z,9.90
2023-01-08T08:17:29.250Z,11.02
2023-01-08T08:21:10.935Z,10.05
2023-01-08T08:24:52.614Z,10.98
2023-01-08T08:28:34.330Z,9.20
2023-01-08T08:32:16.058Z,11.15
2023-01-08T08:35:57.859Z,17.15
2023-01-08T08:39:39.548Z,12.00
2023-01-08T08:43:21.285Z,13.55
2023-01-08T08:47:03.004Z,11.82
2023-01-08T08:50:44.788Z,12.27
2023-01-08T08:54:26.460Z,14.55
2023-01-08T08:58:12.657Z,13.45
2023-01-08T09:01:54.448Z,12.00
2023-01-08T09:05:36.592Z,12.23
2023-01-08T09:09:18.295Z,10.68
2023-01-08T09:12:59.991Z,13.05
2023-01-08T09:16:41.769Z,13.70
2023-01-08T09:20:24.183Z,11.95
2023-01-08T09:24:06.769Z,11.05
2023-01-08T09:27:48.438Z,7.32
2023-01-08T09:31:30.183Z,10.82
2023-01-08T09:35:11.921Z,13.77
2023-01-08T09:38:53.617Z,10.70
2023-01-08T09:42:35.480Z,7.25
2023-01-08T09:46:18.711Z,6.68
2023-01-08T09:50:02.437Z,8.00
2023-01-08T09:53:44.743Z,5.53
2023-01-08T09:57:26.427Z,7.00
2023-01-08T10:01:09.731Z,4.72
2023-01-08T10:04:58.986Z,4.88
2023-01-08T10:08:40.933Z,3.53
2023-01-08T10:12:32.491Z,3.40
2023-01-08T10:16:20.180Z,3.47
2023-01-08T10:20:02.542Z,3.78
2023-01-08T10:23:51.931Z,5.40
2023-01-08T10:27:38.071Z,6.85
2023-01-08T10:31:19.880Z,2.70
2023-01-08T10:35:07.044Z,3.53
2023-01-08T10:38:59.758Z,4.07
2023-01-08T10:42:41.502Z,4.05
2023-01-08T10:46:31.531Z,2.85
2023-01-08T10:50:29.253Z,4.05
2023-01-08T10:54:15.748Z,4.05
2023-01-08T10:58:23.678Z,3.85
2023-01-08T11:02:11.435Z,5.88
2023-01-08T11:05:53.255Z,6.10
2023-01-08T11:09:45.408Z,8.65
2023-01-08T11:13:27.235Z,7.88
2023-01-08T11:17:10.336Z,6.10
2023-01-08T11:20:52.929Z,4.18
2023-01-08T11:24:38.020Z,7.68
2023-01-08T11:28:33.377Z,8.20
2023-01-08T11:32:30.407Z,4.65
2023-01-08T11:36:44.295Z,4.40
2023-01-08T11:40:47.695Z,3.80
2023-01-08T11:44:47.570Z,3.70
2023-01-08T11:49:05.744Z,3.35
2023-01-08T11:52:59.717Z,3.22
2023-01-08T12:00:52.395Z,4.53
2023-01-08T12:05:01.523Z,4.53
2023-01-08T12:08:52.252Z,4.97
2023-01-08T12:12:45.961Z,6.07
2023-01-08T12:16:46.511Z,4.82
2023-01-08T12:20:38.276Z,8.20
2023-01-08T12:24:51.857Z,6.20
2023-01-08T12:28:44.259Z,7.57
2023-01-08T12:32:29.103Z,9.82
2023-01-08T12:36:16.274Z,9.27
2023-01-08T12:40:35.596Z,13.25
2023-01-08T12:44:22.663Z,8.45
2023-01-08T12:48:08.791Z,8.50
2023-01-08T12:51:56.234Z,7.82
2023-01-08T12:55:44.955Z,10.77
2023-01-08T12:59:45.538Z,11.80
2023-01-08T13:03:28.154Z,9.80
2023-01-08T13:07:18.937Z,8.90
2023-01-08T13:11:00.646Z,5.88
2023-01-08T13:14:48.107Z,15.68
2023-01-08T13:18:29.806Z,15.05
2023-01-08T13:22:31.122Z,10.13
2023-01-08T13:26:31.598Z,12.23
2023-01-08T13:30:49.028Z,7.00
2023-01-08T13:34:37.285Z,8.07
2023-01-08T13:38:20.697Z,6.55
2023-01-08T13:42:02.555Z,5.15
2023-01-08T13:45:44.519Z,6.00
2023-01-08T13:49:27.387Z,5.00
2023-01-08T13:53:11.541Z,6.20
2023-01-08T13:56:55.081Z,4.40
2023-01-08T14:00:43.072Z,9.98
2023-01-08T14:04:24.828Z,10.20
2023-01-08T14:08:23.123Z,7.63
2023-01-08T14:12:04.946Z,5.55
2023-01-08T14:15:46.605Z,5.25
2023-01-08T14:19:29.036Z,3.45
2023-01-08T14:23:12.377Z,8.65
2023-01-08T14:26:58.592Z,5.40
2023-01-08T14:30:53.936Z,12.40
2023-01-08T14:34:35.654Z,2.33
2023-01-08T14:38:17.591Z,4.35
2023-01-08T14:42:20.082Z,3.05
2023-01-08T14:46:03.817Z,2.25
2023-01-08T14:53:54.263Z,3.20
2023-01-08T14:57:35.955Z,0.73
2023-01-08T15:01:27.893Z,3.50
2023-01-08T15:05:21.671Z,2.15
2023-01-08T15:09:03.833Z,1.15
2023-01-08T15:12:45.524Z,3.10
2023-01-08T15:16:35.088Z,1.42
2023-01-08T15:20:17.889Z,1.80
2023-01-08T15:23:59.736Z,2.67
2023-01-08T15:27:41.434Z,2.45
2023-01-08T15:31:29.929Z,1.05
2023-01-08T15:35:15.666Z,3.88
2023-01-08T15:38:57.490Z,2.88
2023-01-08T15:42:57.600Z,2.95
2023-01-08T15:46:39.300Z,5.93
2023-01-08T15:50:21.693Z,5.05
2023-01-08T15:54:03.511Z,3.70
2023-01-08T15:57:45.245Z,5.18
2023-01-08T16:01:27.413Z,5.15
2023-01-08T16:05:09.800Z,10.88
2023-01-08T16:08:51.584Z,9.50
2023-01-08T16:12:33.281Z,5.97
2023-01-08T16:16:15.639Z,3.17
2023-01-08T16:19:57.609Z,9.07
2023-01-08T16:23:41.466Z,6.13
2023-01-08T16:27:23.166Z,7.13
2023-01-08T16:31:05.365Z,6.10
2023-01-08T16:34:47.063Z,5.90
2023-01-08T16:38:29.060Z,6.70
2023-01-08T16:42:11.996Z,5.40
2023-01-08T16:45:55.059Z,7.30
2023-01-08T16:49:36.871Z,9.00
2023-01-08T16:53:18.935Z,9.35
2023-01-08T16:57:00.637Z,13.55
2023-01-08T17:00:42.576Z,10.50
2023-01-08T17:04:24.260Z,10.23
2023-01-08T17:08:07.846Z,8.23
2023-01-08T17:11:49.831Z,11.95
2023-01-08T17:15:31.527Z,11.93
2023-01-08T17:19:14.581Z,9.93
2023-01-08T17:22:57.595Z,9.13
2023-01-08T17:26:39.284Z,10.53
2023-01-08T17:30:21.146Z,12.55
2023-01-08T17:34:02.835Z,9.15
2023-01-08T17:37:44.550Z,5.70
2023-01-08T17:41:46.321Z,8.13
2023-01-08T17:45:28.036Z,10.57
2023-01-08T17:49:11.162Z,8.57
2023-01-08T17:52:52.925Z,13.57
2023-01-08T17:56:34.679Z,6.03
2023-01-08T18:00:18.158Z,7.63
2023-01-08T18:03:59.926Z,16.45
2023-01-08T18:07:42.720Z,11.00
2023-01-08T18:11:25.489Z,14.48
2023-01-08T18:15:08.484Z,22.52
2023-01-08T18:18:51.637Z,15.10
2023-01-08T18:22:33.355Z,20.55
2023-01-08T18:26:15.863Z,15.20
2023-01-08T18:29:57.691Z,10.68
2023-01-08T18:33:39.548Z,15.32
2023-01-08T18:37:23.254Z,18.35
2023-01-08T18:44:52.499Z,14.70
2023-01-08T18:48:34.789Z,14.30
2023-01-08T18:52:16.490Z,13.02
2023-01-08T18:55:59.589Z,13.63
2023-01-08T18:59:42.517Z,13.85
2023-01-08T19:03:24.249Z,11.23
2023-01-08T19:07:05.975Z,17.77
2023-01-08T19:10:47.918Z,9.90
2023-01-08T19:14:30.319Z,14.52
2023-01-08T19:18:12.411Z,12.68
2023-01-08T19:21:54.517Z,16.23
2023-01-08T19:25:39.304Z,16.42
2023-01-08T19:29:21.195Z,13.50
2023-01-08T19:33:02.963Z,13.05
2023-01-08T19:36:44.651Z,19.00
2023-01-08T19:40:26.588Z,14.07
2023-01-08T19:44:08.634Z,18.05
2023-01-08T19:47:50.399Z,16.15
2023-01-08T19:51:32.747Z,18.60
2023-01-08T19:55:14.471Z,21.70
2023-01-08T19:58:56.848Z,16.08
2023-01-08T20:02:38.604Z,12.63
2023-01-08T20:06:22.408Z,10.82
2023-01-08T20:10:05.075Z,6.25
2023-01-08T20:13:46.854Z,9.25
2023-01-08T20:17:28.507Z,13.40
2023-01-08T20:21:15.510Z,5.80
2023-01-08T20:24:58.503Z,10.27
2023-01-08T20:28:40.745Z,11.40
2023-01-08T20:32:23.544Z,10.70
2023-01-08T20:36:10.291Z,10.80
2023-01-08T20:39:52.215Z,7.07
2023-01-08T20:43:34.699Z,9.90
2023-01-08T20:47:16.540Z,7.93
2023-01-08T20:51:00.583Z,9.13
2023-01-08T20:54:42.296Z,11.40
2023-01-08T20:58:24.120Z,11.20
2023-01-08T21:02:06.116Z,10.88
2023-01-08T21:05:47.839Z,16.33
2023-01-08T21:09:29.794Z,7.88
2023-01-08T21:13:11.710Z,11.98
2023-01-08T21:16:53.385Z,9.63
2023-01-08T21:20:36.249Z,11.95
2023-01-08T21:24:18.013Z,9.73
2023-01-08T21:27:59.707Z,10.80
2023-01-08T21:31:41.690Z,6.93
2023-01-08T21:35:25.373Z,7.72
2023-01-08T21:39:07.576Z,8.70
2023-01-08T21:43:07.723Z,3.92
2023-01-08T21:46:49.451Z,3.95
2023-01-08T21:50:31.370Z,3.13
2023-01-08T21:54:13.134Z,4.05
2023-01-08T21:57:54.874Z,5.13
2023-01-08T22:01:37.889Z,6.30
2023-01-08T22:05:19.605Z,7.85
2023-01-08T22:09:01.452Z,8.60
2023-01-08T22:12:43.131Z,9.10
2023-01-08T22:16:24.821Z,9.98
2023-01-08T22:20:09.255Z,7.18
2023-01-08T22:23:50.986Z,8.80
2023-01-08T22:27:32.743Z,5.45
2023-01-08T22:31:15.130Z,4.97
2023-01-08T22:34:56.892Z,3.30
2023-01-08T22:38:39.885Z,2.80
2023-01-08T22:42:22.901Z,1.63
2023-01-08T22:46:04.707Z,2.20
2023-01-08T22:49:48.454Z,1.35
2023-01-08T22:57:11.766Z,2.40
2023-01-08T23:00:53.719Z,1.83
2023-01-08T23:04:35.421Z,2.80
2023-01-08T23:08:17.107Z,1.63
2023-01-08T23:11:58.979Z,2.45
2023-01-08T23:15:40.692Z,4.60
2023-01-08T23:19:23.654Z,4.35
2023-01-08T23:23:05.371Z,4.20
2023-01-08T23:26:47.054Z,5.07
2023-01-08T23:30:31.555Z,6.30
2023-01-08T23:34:13.365Z,6.85
2023-01-08T23:37:55.052Z,5.57
2023-01-08T23:41:38.266Z,8.55
2023-01-08T23:45:19.996Z,7.03
2023-01-08T23:49:01.938Z,4.30
2023-01-08T23:52:43.616Z,5.68
2023-01-08T23:56:25.411Z,5.97
